createdAt,value
2017-11-27T00:00:08.569Z,0.00
2017-11-27T00:01:08.543Z,0.00
2017-11-27T00:02:08.519Z,0.00
2017-11-27T00:03:08.497Z,0.00
2017-11-27T00:04:08.463Z,0.00
2017-11-27T00:05:08.440Z,0.00
2017-11-27T00:06:08.413Z,0.00
2017-11-27T00:07:08.387Z,0.00
2017-11-27T00:08:08.360Z,0.00
2017-11-27T00:09:08.334Z,0.00
2017-11-27T00:10:08.309Z,0.00
2017-11-27T00:11:08.285Z,0.00
2017-11-27T00:12:08.253Z,0.00
2017-11-27T00:13:08.232Z,0.00
2017-11-27T00:14:08.203Z,0.00
2017-11-27T00:15:08.177Z,0.00
2017-11-27T00:16:08.151Z,0.00
2017-11-27T00:17:08.125Z,0.00
2017-11-27T00:18:08.098Z,0.00
2017-11-27T00:19:08.081Z,0.00
2017-11-27T00:20:08.046Z,0.00
2017-11-27T00:21:08.020Z,0.00
2017-11-27T00:22:07.993Z,0.00
2017-11-27T00:23:07.967Z,0.00
2017-11-27T00:24:07.939Z,0.00
2017-11-27T00:25:07.913Z,0.00
2017-11-27T00:26:07.888Z,0.00
2017-11-27T00:27:07.861Z,0.00
2017-11-27T00:28:07.839Z,0.00
2017-11-27T00:29:07.811Z,0.00
2017-11-27T00:30:07.798Z,0.00
2017-11-27T00:31:07.757Z,0.00
2017-11-27T00:32:07.727Z,0.00
2017-11-27T00:33:07.707Z,0.00
2017-11-27T00:34:07.679Z,0.00
2017-11-27T00:35:07.654Z,0.00
2017-11-27T00:36:07.624Z,0.00
2017-11-27T00:37:07.607Z,0.00
2017-11-27T00:38:07.574Z,0.00
2017-11-27T00:39:07.550Z,0.00
2017-11-27T00:40:07.528Z,0.00
2017-11-27T00:41:07.495Z,0.00
2017-11-27T00:42:07.469Z,0.00
2017-11-27T00:43:07.442Z,0.00
2017-11-27T00:44:07.415Z,0.00
2017-11-27T00:45:07.391Z,0.00
2017-11-27T00:46:07.363Z,0.00
2017-11-27T00:47:07.337Z,0.00
2017-11-27T00:48:07.311Z,0.00
2017-11-27T00:49:07.285Z,0.00
2017-11-27T00:50:07.259Z,0.00
2017-11-27T00:51:07.233Z,0.00
2017-11-27T00:52:07.214Z,0.00
2017-11-27T00:53:07.180Z,0.00
2017-11-27T00:54:07.154Z,0.00
2017-11-27T00:55:07.127Z,0.00
2017-11-27T00:56:07.103Z,0.00
2017-11-27T00:57:07.074Z,0.00
2017-11-27T00:58:07.049Z,0.00
2017-11-27T00:59:07.023Z,0.00
2017-11-27T01:00:06.997Z,0.00
2017-11-27T01:01:06.971Z,0.00
2017-11-27T01:02:06.945Z,0.00
2017-11-27T01:03:06.920Z,0.00
2017-11-27T01:04:06.892Z,0.00
2017-11-27T01:05:06.865Z,0.00
2017-11-27T01:06:06.839Z,0.00
2017-11-27T01:07:06.813Z,0.00
2017-11-27T01:08:06.786Z,0.00
2017-11-27T01:09:06.759Z,0.00
2017-11-27T01:10:06.732Z,0.00
2017-11-27T01:11:06.708Z,0.00
2017-11-27T01:12:06.682Z,0.00
2017-11-27T01:13:06.654Z,0.00
2017-11-27T01:14:06.629Z,0.00
2017-11-27T01:15:06.604Z,0.00
2017-11-27T01:16:06.576Z,0.00
2017-11-27T01:17:06.552Z,0.00
2017-11-27T01:18:06.525Z,0.00
2017-11-27T01:19:06.498Z,0.00
2017-11-27T01:20:06.472Z,0.00
2017-11-27T01:21:06.446Z,0.00
2017-11-27T01:22:06.430Z,0.00
2017-11-27T01:23:06.393Z,0.00
2017-11-27T01:24:06.368Z,0.00
2017-11-27T01:25:06.341Z,0.00
2017-11-27T01:26:06.324Z,0.00
2017-11-27T01:27:06.290Z,0.00
2017-11-27T01:28:06.263Z,0.00
2017-11-27T01:29:06.237Z,0.00
2017-11-27T01:30:06.211Z,0.00
2017-11-27T01:31:06.184Z,0.00
2017-11-27T01:32:06.160Z,0.00
2017-11-27T01:33:06.133Z,0.00
2017-11-27T01:34:06.106Z,0.00
2017-11-27T01:35:06.083Z,0.00
2017-11-27T01:36:06.054Z,0.00
2017-11-27T01:37:06.030Z,0.00
2017-11-27T01:38:06.001Z,0.00
2017-11-27T01:39:05.977Z,0.00
2017-11-27T01:40:05.951Z,0.00
2017-11-27T01:41:05.924Z,0.00
2017-11-27T01:42:05.901Z,0.00
2017-11-27T01:43:05.874Z,0.00
2017-11-27T01:44:05.846Z,0.00
2017-11-27T01:45:05.822Z,0.00
2017-11-27T01:46:05.795Z,0.00
2017-11-27T01:47:05.770Z,0.00
2017-11-27T01:48:05.744Z,0.00
2017-11-27T01:49:05.717Z,0.00
2017-11-27T01:50:05.693Z,0.00
2017-11-27T01:51:05.666Z,0.00
2017-11-27T01:52:05.639Z,0.00
2017-11-27T01:53:05.613Z,0.00
2017-11-27T01:54:05.584Z,0.00
2017-11-27T01:55:05.562Z,0.00
2017-11-27T01:56:05.538Z,0.00
2017-11-27T01:57:05.511Z,0.00
2017-11-27T01:58:05.484Z,0.00
2017-11-27T01:59:05.462Z,0.00
2017-11-27T02:00:05.433Z,0.00
2017-11-27T02:01:05.406Z,0.00
2017-11-27T02:02:05.379Z,0.00
2017-11-27T02:03:05.357Z,0.00
2017-11-27T02:04:05.326Z,0.00
2017-11-27T02:05:05.300Z,0.00
2017-11-27T02:06:05.276Z,0.00
2017-11-27T02:07:05.248Z,0.00
2017-11-27T02:08:05.223Z,0.00
2017-11-27T02:09:05.198Z,0.00
2017-11-27T02:10:05.171Z,0.00
2017-11-27T02:11:05.156Z,0.00
2017-11-27T02:12:05.120Z,0.00
2017-11-27T02:13:05.093Z,0.00
2017-11-27T02:14:05.068Z,0.00
2017-11-27T02:15:05.040Z,0.00
2017-11-27T02:16:05.014Z,0.00
2017-11-27T02:17:04.989Z,0.00
2017-11-27T02:18:04.963Z,0.00
2017-11-27T02:19:04.937Z,0.00
2017-11-27T02:20:04.908Z,0.00
2017-11-27T02:21:04.881Z,0.00
2017-11-27T02:22:04.856Z,0.00
2017-11-27T02:23:04.830Z,0.00
2017-11-27T02:24:04.805Z,0.00
2017-11-27T02:25:04.778Z,0.00
2017-11-27T02:26:04.754Z,0.00
2017-11-27T02:27:04.728Z,0.00
2017-11-27T02:28:04.700Z,0.00
2017-11-27T02:29:04.673Z,0.00
2017-11-27T02:30:04.650Z,0.00
2017-11-27T02:31:04.628Z,0.00
2017-11-27T02:32:04.596Z,0.00
2017-11-27T02:33:04.571Z,0.00
2017-11-27T02:34:04.542Z,0.00
2017-11-27T02:35:04.519Z,0.00
2017-11-27T02:36:04.490Z,0.00
2017-11-27T02:37:04.465Z,0.00
2017-11-27T02:38:04.439Z,0.00
2017-11-27T02:39:04.413Z,0.00
2017-11-27T02:40:04.386Z,0.00
2017-11-27T02:41:04.360Z,0.00
2017-11-27T02:42:04.335Z,0.00
2017-11-27T02:43:04.308Z,0.00
2017-11-27T02:44:04.291Z,0.00
2017-11-27T02:45:04.263Z,0.00
2017-11-27T02:46:04.230Z,0.00
2017-11-27T02:47:04.203Z,0.00
2017-11-27T02:48:04.184Z,0.00
2017-11-27T02:49:04.164Z,0.00
2017-11-27T02:50:04.126Z,0.00
2017-11-27T02:51:04.102Z,0.00
2017-11-27T02:52:04.073Z,0.00
2017-11-27T02:53:04.050Z,0.00
2017-11-27T02:54:04.023Z,0.00
2017-11-27T02:55:03.996Z,0.00
2017-11-27T02:56:03.969Z,0.00
2017-11-27T02:57:03.942Z,0.00
2017-11-27T02:58:03.917Z,0.00
2017-11-27T02:59:03.889Z,0.00
2017-11-27T03:00:03.864Z,0.00
2017-11-27T03:01:03.837Z,0.00
2017-11-27T03:02:03.812Z,0.00
2017-11-27T03:03:03.788Z,0.00
2017-11-27T03:04:03.759Z,0.00
2017-11-27T03:05:03.733Z,0.00
2017-11-27T03:06:03.707Z,0.00
2017-11-27T03:07:03.681Z,0.00
2017-11-27T03:08:03.655Z,0.00
2017-11-27T03:09:03.629Z,0.00
2017-11-27T03:10:03.604Z,0.00
2017-11-27T03:11:03.577Z,0.00
2017-11-27T03:12:03.552Z,0.00
2017-11-27T03:13:03.525Z,0.00
2017-11-27T03:14:03.500Z,0.00
2017-11-27T03:15:03.473Z,0.00
2017-11-27T03:16:03.447Z,0.00
2017-11-27T03:17:03.421Z,0.00
2017-11-27T03:18:03.397Z,0.00
2017-11-27T03:19:03.369Z,0.00
2017-11-27T03:20:03.342Z,0.00
2017-11-27T03:21:03.313Z,0.00
2017-11-27T03:22:03.291Z,0.00
2017-11-27T03:23:03.268Z,0.00
2017-11-27T03:24:03.237Z,0.00
2017-11-27T03:25:03.216Z,0.00
2017-11-27T03:26:03.186Z,0.00
2017-11-27T03:27:03.164Z,0.00
2017-11-27T03:28:03.134Z,0.00
2017-11-27T03:29:03.110Z,0.00
2017-11-27T03:30:03.083Z,0.00
2017-11-27T03:31:03.058Z,0.00
2017-11-27T03:32:03.030Z,0.00
2017-11-27T03:33:03.002Z,0.00
2017-11-27T03:34:02.976Z,0.00
2017-11-27T03:35:02.953Z,0.00
2017-11-27T03:36:02.924Z,0.00
2017-11-27T03:37:02.896Z,0.00
2017-11-27T03:38:02.875Z,0.00
2017-11-27T03:39:02.845Z,0.00
2017-11-27T03:40:02.820Z,0.00
2017-11-27T03:41:02.794Z,0.00
2017-11-27T03:42:02.770Z,0.00
2017-11-27T03:43:02.745Z,0.00
2017-11-27T03:44:02.716Z,0.00
2017-11-27T03:45:02.698Z,0.00
2017-11-27T03:46:02.666Z,0.00
2017-11-27T03:47:02.640Z,0.00
2017-11-27T03:48:02.612Z,0.00
2017-11-27T03:49:02.587Z,0.00
2017-11-27T03:50:02.563Z,0.00
2017-11-27T03:51:02.533Z,0.00
2017-11-27T03:52:02.508Z,0.00
2017-11-27T03:53:02.481Z,0.00
2017-11-27T03:54:02.460Z,0.00
2017-11-27T03:55:02.431Z,0.00
2017-11-27T03:56:02.405Z,0.00
2017-11-27T03:57:02.379Z,0.00
2017-11-27T03:58:02.354Z,0.00
2017-11-27T03:59:02.328Z,0.00
2017-11-27T04:00:02.301Z,0.00
2017-11-27T04:01:02.275Z,0.00
2017-11-27T04:02:02.256Z,0.00
2017-11-27T04:03:02.226Z,0.00
2017-11-27T04:04:02.197Z,0.00
2017-11-27T04:05:02.173Z,0.00
2017-11-27T04:06:02.147Z,0.00
2017-11-27T04:07:02.121Z,0.00
2017-11-27T04:08:02.097Z,0.00
2017-11-27T04:09:02.072Z,0.00
2017-11-27T04:10:02.047Z,0.00
2017-11-27T04:11:02.019Z,0.00
2017-11-27T04:12:02.033Z,0.00
2017-11-27T04:13:01.967Z,0.00
2017-11-27T04:14:01.942Z,0.00
2017-11-27T04:15:01.917Z,0.00
2017-11-27T04:16:01.888Z,0.00
2017-11-27T04:17:01.870Z,0.00
2017-11-27T04:18:01.836Z,0.00
2017-11-27T04:19:01.814Z,0.00
2017-11-27T04:20:01.791Z,0.00
2017-11-27T04:21:01.770Z,0.00
2017-11-27T04:22:01.736Z,0.00
2017-11-27T04:23:01.716Z,0.00
2017-11-27T04:24:01.686Z,0.00
2017-11-27T04:25:01.657Z,0.00
2017-11-27T04:26:01.636Z,0.00
2017-11-27T04:27:01.619Z,0.00
2017-11-27T04:28:01.593Z,0.00
2017-11-27T04:29:01.554Z,0.00
2017-11-27T04:30:01.540Z,0.00
2017-11-27T04:31:01.511Z,0.00
2017-11-27T04:32:01.478Z,0.00
2017-11-27T04:33:01.456Z,0.00
2017-11-27T04:34:01.431Z,0.00
2017-11-27T04:35:01.406Z,0.00
2017-11-27T04:36:01.378Z,0.00
2017-11-27T04:37:01.353Z,0.00
2017-11-27T04:38:01.329Z,0.00
2017-11-27T04:39:01.299Z,0.00
2017-11-27T04:40:01.281Z,0.00
2017-11-27T04:41:01.246Z,0.00
2017-11-27T04:42:01.222Z,0.00
2017-11-27T04:43:01.195Z,0.00
2017-11-27T04:44:01.170Z,0.00
2017-11-27T04:45:01.143Z,0.00
2017-11-27T04:46:01.117Z,0.00
2017-11-27T04:47:01.108Z,0.00
2017-11-27T04:48:01.067Z,0.00
2017-11-27T04:49:01.041Z,0.00
2017-11-27T04:50:01.015Z,0.00
2017-11-27T04:51:00.989Z,0.00
2017-11-27T04:52:00.963Z,0.00
2017-11-27T04:53:00.937Z,0.00
2017-11-27T04:54:00.911Z,0.00
2017-11-27T04:55:00.886Z,0.00
2017-11-27T04:56:00.860Z,0.00
2017-11-27T04:57:00.839Z,0.00
2017-11-27T04:58:00.808Z,0.00
2017-11-27T04:59:00.787Z,0.00
2017-11-27T05:00:00.755Z,0.00
2017-11-27T05:01:00.730Z,0.00
2017-11-27T05:02:00.707Z,0.00
2017-11-27T05:03:00.679Z,0.00
2017-11-27T05:04:00.653Z,0.00
2017-11-27T05:05:00.632Z,0.00
2017-11-27T05:06:00.603Z,0.00
2017-11-27T05:07:00.578Z,0.00
2017-11-27T05:08:00.553Z,0.00
2017-11-27T05:09:00.526Z,0.00
2017-11-27T05:10:00.500Z,0.00
2017-11-27T05:11:00.476Z,0.00
2017-11-27T05:12:00.449Z,0.00
2017-11-27T05:13:00.422Z,0.00
2017-11-27T05:14:00.398Z,0.00
2017-11-27T05:15:00.371Z,0.00
2017-11-27T05:16:00.346Z,0.00
2017-11-27T05:17:00.319Z,0.00
2017-11-27T05:18:00.294Z,0.00
2017-11-27T05:19:00.270Z,0.00
2017-11-27T05:20:00.242Z,0.00
2017-11-27T05:21:00.252Z,0.00
2017-11-27T05:22:00.191Z,0.00
2017-11-27T05:23:00.165Z,0.00
2017-11-27T05:24:00.138Z,0.00
2017-11-27T05:25:00.113Z,0.00
2017-11-27T05:26:00.088Z,0.00
2017-11-27T05:27:00.062Z,0.00
2017-11-27T05:28:00.036Z,0.00
2017-11-27T05:29:00.009Z,0.00
2017-11-27T05:29:59.994Z,0.00
2017-11-27T05:30:59.959Z,0.00
2017-11-27T05:31:59.931Z,0.00
2017-11-27T05:32:59.904Z,0.00
2017-11-27T05:33:59.888Z,0.00
2017-11-27T05:34:59.855Z,0.00
2017-11-27T05:35:59.829Z,0.00
2017-11-27T05:36:59.804Z,0.00
2017-11-27T05:37:59.777Z,0.00
2017-11-27T05:38:59.752Z,0.00
2017-11-27T05:39:59.725Z,0.00
2017-11-27T05:40:59.705Z,0.00
2017-11-27T05:41:59.673Z,0.00
2017-11-27T05:42:59.647Z,0.00
2017-11-27T05:43:59.621Z,0.00
2017-11-27T05:44:59.596Z,0.00
2017-11-27T05:45:59.572Z,0.00
2017-11-27T05:46:59.546Z,0.00
2017-11-27T05:47:59.520Z,0.00
2017-11-27T05:48:59.494Z,0.00
2017-11-27T05:49:59.468Z,0.00
2017-11-27T05:50:59.440Z,0.00
2017-11-27T05:51:59.415Z,0.00
2017-11-27T05:52:59.389Z,0.00
2017-11-27T05:53:59.363Z,0.00
2017-11-27T05:54:59.337Z,0.00
2017-11-27T05:55:59.312Z,0.00
2017-11-27T05:56:59.284Z,0.00
2017-11-27T05:57:59.276Z,0.00
2017-11-27T05:58:59.235Z,0.00
2017-11-27T05:59:59.208Z,0.00
2017-11-27T06:00:59.184Z,0.00
2017-11-27T06:01:59.155Z,0.00
2017-11-27T06:02:59.131Z,0.00
2017-11-27T06:03:59.103Z,0.00
2017-11-27T06:04:59.077Z,0.00
2017-11-27T06:05:59.051Z,0.00
2017-11-27T06:06:59.031Z,0.00
2017-11-27T06:07:59.003Z,0.00
2017-11-27T06:08:58.977Z,0.00
2017-11-27T06:09:58.948Z,0.00
2017-11-27T06:10:58.923Z,0.00
2017-11-27T06:11:58.896Z,0.00
2017-11-27T06:12:58.869Z,0.00
2017-11-27T06:13:58.844Z,0.00
2017-11-27T06:14:58.819Z,0.00
2017-11-27T06:15:58.798Z,0.00
2017-11-27T06:16:58.767Z,0.00
2017-11-27T06:17:58.740Z,0.00
2017-11-27T06:18:58.715Z,0.00
2017-11-27T06:19:58.692Z,0.00
2017-11-27T06:20:58.661Z,0.00
2017-11-27T06:21:58.640Z,0.00
2017-11-27T06:22:58.611Z,0.00
2017-11-27T06:23:58.584Z,0.00
2017-11-27T06:24:58.558Z,0.00
2017-11-27T06:25:58.532Z,0.00
2017-11-27T06:26:58.507Z,0.00
2017-11-27T06:27:58.479Z,0.00
2017-11-27T06:28:58.456Z,0.00
2017-11-27T06:29:58.428Z,0.00
2017-11-27T06:30:58.403Z,0.00
2017-11-27T06:31:58.377Z,0.00
2017-11-27T06:32:58.350Z,0.00
2017-11-27T06:33:58.323Z,0.00
2017-11-27T06:34:58.297Z,0.00
2017-11-27T06:35:58.271Z,0.00
2017-11-27T06:36:58.247Z,0.00
2017-11-27T06:37:58.222Z,0.00
2017-11-27T06:38:58.201Z,0.00
2017-11-27T06:39:58.168Z,0.00
2017-11-27T06:40:58.143Z,0.00
2017-11-27T06:41:58.116Z,0.00
2017-11-27T06:42:58.095Z,0.00
2017-11-27T06:43:58.075Z,0.00
2017-11-27T06:44:58.047Z,0.00
2017-11-27T06:45:58.034Z,0.00
2017-11-27T06:46:57.988Z,0.00
2017-11-27T06:47:57.962Z,0.00
2017-11-27T06:48:57.943Z,0.00
2017-11-27T06:49:57.909Z,0.00
2017-11-27T06:50:57.886Z,0.00
2017-11-27T06:51:57.861Z,0.00
2017-11-27T06:52:57.834Z,0.00
2017-11-27T06:53:57.806Z,0.00
2017-11-27T06:54:57.781Z,0.00
2017-11-27T06:55:57.756Z,0.00
2017-11-27T06:56:57.729Z,0.00
2017-11-27T06:57:57.703Z,0.00
2017-11-27T06:58:57.682Z,0.00
2017-11-27T06:59:57.651Z,0.00
2017-11-27T07:00:57.624Z,0.00
2017-11-27T07:01:57.600Z,0.00
2017-11-27T07:02:57.575Z,0.00
2017-11-27T07:03:57.547Z,0.00
2017-11-27T07:04:57.524Z,0.00
2017-11-27T07:05:57.497Z,0.00
2017-11-27T07:06:57.471Z,0.00
2017-11-27T07:07:57.444Z,0.00
2017-11-27T07:08:57.417Z,5.63
2017-11-27T07:09:57.394Z,5.63
2017-11-27T07:10:57.369Z,5.63
2017-11-27T07:11:57.341Z,5.63
2017-11-27T07:12:57.316Z,5.63
2017-11-27T07:13:57.291Z,5.63
2017-11-27T07:14:57.264Z,5.63
2017-11-27T07:15:57.238Z,5.63
2017-11-27T07:16:57.212Z,11.25
2017-11-27T07:17:57.186Z,11.25
2017-11-27T07:18:57.161Z,11.25
2017-11-27T07:19:57.154Z,11.25
2017-11-27T07:20:57.110Z,11.25
2017-11-27T07:21:57.095Z,11.25
2017-11-27T07:22:57.068Z,16.88
2017-11-27T07:23:57.034Z,16.88
2017-11-27T07:24:57.013Z,16.88
2017-11-27T07:25:56.982Z,16.88
2017-11-27T07:26:56.955Z,22.50
2017-11-27T07:27:56.929Z,22.50
2017-11-27T07:28:56.902Z,22.50
2017-11-27T07:29:56.877Z,28.13
2017-11-27T07:30:56.852Z,28.13
2017-11-27T07:31:56.827Z,28.13
2017-11-27T07:32:56.802Z,28.13
2017-11-27T07:33:56.774Z,28.13
2017-11-27T07:34:56.755Z,33.75
2017-11-27T07:35:56.722Z,33.75
2017-11-27T07:36:56.696Z,33.75
2017-11-27T07:37:56.670Z,33.75
2017-11-27T07:38:56.645Z,28.13
2017-11-27T07:39:56.618Z,28.13
2017-11-27T07:40:56.597Z,28.13
2017-11-27T07:41:56.567Z,28.13
2017-11-27T07:42:56.541Z,22.50
2017-11-27T07:43:56.518Z,22.50
2017-11-27T07:44:56.488Z,22.50
2017-11-27T07:45:56.464Z,22.50
2017-11-27T07:46:56.437Z,22.50
2017-11-27T07:47:56.410Z,22.50
2017-11-27T07:48:56.384Z,22.50
2017-11-27T07:49:56.359Z,22.50
2017-11-27T07:50:56.333Z,22.50
2017-11-27T07:51:56.308Z,22.50
2017-11-27T07:52:56.280Z,22.50
2017-11-27T07:53:56.255Z,22.50
2017-11-27T07:54:56.239Z,22.50
2017-11-27T07:55:56.203Z,28.13
2017-11-27T07:56:56.186Z,28.13
2017-11-27T07:57:56.152Z,28.13
2017-11-27T07:58:56.127Z,28.13
2017-11-27T07:59:56.101Z,28.13
2017-11-27T08:00:56.081Z,28.13
2017-11-27T08:01:56.048Z,28.13
2017-11-27T08:02:56.022Z,28.13
2017-11-27T08:03:55.996Z,28.13
2017-11-27T08:04:55.974Z,28.13
2017-11-27T08:05:55.945Z,28.13
2017-11-27T08:06:55.918Z,28.13
2017-11-27T08:07:55.892Z,28.13
2017-11-27T08:08:55.867Z,28.13
2017-11-27T08:09:55.841Z,33.75
2017-11-27T08:10:55.830Z,28.13
2017-11-27T08:11:55.788Z,28.13
2017-11-27T08:12:55.763Z,33.75
2017-11-27T08:13:55.737Z,33.75
2017-11-27T08:14:55.711Z,33.75
2017-11-27T08:15:55.683Z,33.75
2017-11-27T08:16:55.659Z,28.13
2017-11-27T08:17:55.633Z,28.13
2017-11-27T08:18:55.607Z,28.13
2017-11-27T08:19:55.579Z,28.13
2017-11-27T08:20:55.555Z,22.50
2017-11-27T08:21:55.533Z,22.50
2017-11-27T08:22:55.504Z,28.13
2017-11-27T08:23:55.480Z,28.13
2017-11-27T08:24:55.454Z,22.50
2017-11-27T08:25:55.425Z,22.50
2017-11-27T08:26:55.399Z,28.13
2017-11-27T08:27:55.374Z,22.50
2017-11-27T08:28:55.454Z,22.50
2017-11-27T08:29:55.322Z,22.50
2017-11-27T08:30:55.318Z,22.50
2017-11-27T08:31:55.269Z,22.50
2017-11-27T08:32:55.244Z,22.50
2017-11-27T08:33:55.221Z,22.50
2017-11-27T08:34:55.192Z,28.13
2017-11-27T08:35:55.166Z,22.50
2017-11-27T08:36:55.142Z,22.50
2017-11-27T08:37:55.114Z,22.50
2017-11-27T08:38:55.089Z,22.50
2017-11-27T08:39:55.062Z,28.13
2017-11-27T08:40:55.038Z,28.13
2017-11-27T08:41:55.008Z,28.13
2017-11-27T08:42:54.985Z,28.13
2017-11-27T08:43:54.960Z,28.13
2017-11-27T08:44:54.936Z,33.75
2017-11-27T08:45:54.908Z,33.75
2017-11-27T08:46:54.883Z,39.38
2017-11-27T08:47:54.857Z,33.75
2017-11-27T08:48:54.830Z,33.75
2017-11-27T08:49:54.803Z,33.75
2017-11-27T08:50:54.777Z,33.75
2017-11-27T08:51:54.752Z,39.38
2017-11-27T08:52:54.731Z,39.38
2017-11-27T08:53:54.700Z,33.75
2017-11-27T08:54:54.675Z,39.38
2017-11-27T08:55:54.655Z,39.38
2017-11-27T08:56:54.623Z,39.38
2017-11-27T08:57:54.597Z,39.38
2017-11-27T08:58:54.576Z,39.38
2017-11-27T08:59:54.543Z,45.00
2017-11-27T09:00:54.520Z,45.00
2017-11-27T09:01:54.492Z,39.38
2017-11-27T09:02:54.466Z,45.00
2017-11-27T09:03:54.439Z,50.63
2017-11-27T09:04:54.415Z,50.63
2017-11-27T09:05:54.389Z,61.88
2017-11-27T09:06:54.362Z,56.25
2017-11-27T09:07:54.331Z,39.38
2017-11-27T09:08:54.312Z,33.75
2017-11-27T09:09:54.285Z,45.00
2017-11-27T09:10:54.259Z,39.38
2017-11-27T09:11:54.227Z,45.00
2017-11-27T09:12:54.241Z,45.00
2017-11-27T09:13:54.180Z,45.00
2017-11-27T09:14:54.156Z,39.38
2017-11-27T09:15:54.129Z,39.38
2017-11-27T09:16:54.103Z,45.00
2017-11-27T09:17:54.071Z,45.00
2017-11-27T09:18:54.054Z,45.00
2017-11-27T09:19:54.026Z,45.00
2017-11-27T09:20:54.000Z,33.75
2017-11-27T09:21:53.973Z,33.75
2017-11-27T09:22:53.956Z,33.75
2017-11-27T09:23:53.932Z,33.75
2017-11-27T09:24:53.897Z,33.75
2017-11-27T09:25:53.875Z,39.38
2017-11-27T09:26:53.846Z,50.63
2017-11-27T09:27:53.819Z,56.25
2017-11-27T09:28:53.792Z,45.00
2017-11-27T09:29:53.772Z,39.38
2017-11-27T09:30:53.744Z,33.75
2017-11-27T09:31:53.715Z,39.38
2017-11-27T09:32:53.702Z,39.38
2017-11-27T09:33:53.666Z,56.25
2017-11-27T09:34:53.641Z,61.88
2017-11-27T09:35:53.617Z,56.25
2017-11-27T09:36:53.585Z,45.00
2017-11-27T09:37:53.562Z,45.00
2017-11-27T09:38:53.537Z,39.38
2017-11-27T09:39:53.510Z,39.38
2017-11-27T09:40:53.484Z,50.63
2017-11-27T09:41:53.454Z,56.25
2017-11-27T09:42:53.443Z,50.63
2017-11-27T09:43:53.407Z,61.88
2017-11-27T09:44:53.381Z,56.25
2017-11-27T09:45:53.356Z,61.88
2017-11-27T09:46:53.332Z,45.00
2017-11-27T09:47:53.305Z,50.63
2017-11-27T09:48:53.282Z,56.25
2017-11-27T09:49:53.252Z,50.63
2017-11-27T09:50:53.235Z,56.25
2017-11-27T09:51:53.201Z,56.25
2017-11-27T09:52:53.175Z,50.63
2017-11-27T09:53:53.150Z,67.50
2017-11-27T09:54:53.125Z,67.50
2017-11-27T09:55:53.101Z,73.13
2017-11-27T09:56:53.072Z,56.25
2017-11-27T09:57:53.046Z,56.25
2017-11-27T09:58:53.022Z,61.88
2017-11-27T09:59:52.998Z,61.88
2017-11-27T10:00:52.968Z,61.88
2017-11-27T10:01:52.990Z,45.00
2017-11-27T10:02:52.919Z,50.63
2017-11-27T10:03:52.892Z,56.25
2017-11-27T10:04:52.865Z,50.63
2017-11-27T10:05:52.840Z,45.00
2017-11-27T10:06:52.816Z,56.25
2017-11-27T10:07:52.789Z,45.00
2017-11-27T10:08:52.769Z,56.25
2017-11-27T10:09:52.737Z,56.25
2017-11-27T10:10:52.712Z,61.88
2017-11-27T10:11:52.690Z,56.25
2017-11-27T10:12:52.659Z,56.25
2017-11-27T10:13:52.634Z,73.13
2017-11-27T10:14:52.607Z,78.75
2017-11-27T10:15:52.582Z,78.75
2017-11-27T10:16:52.556Z,73.13
2017-11-27T10:17:52.531Z,67.50
2017-11-27T10:18:52.505Z,73.13
2017-11-27T10:19:52.482Z,56.25
2017-11-27T10:20:52.454Z,61.88
2017-11-27T10:21:52.431Z,56.25
2017-11-27T10:22:52.404Z,67.50
2017-11-27T10:23:52.378Z,56.25
2017-11-27T10:24:52.352Z,50.63
2017-11-27T10:25:52.322Z,45.00
2017-11-27T10:26:52.300Z,67.50
2017-11-27T10:27:52.361Z,61.88
2017-11-27T10:28:52.249Z,67.50
2017-11-27T10:29:52.224Z,67.50
2017-11-27T10:30:52.199Z,73.13
2017-11-27T10:31:52.172Z,73.13
2017-11-27T10:32:52.147Z,67.50
2017-11-27T10:33:52.121Z,78.75
2017-11-27T10:34:52.096Z,67.50
2017-11-27T10:35:52.069Z,73.13
2017-11-27T10:36:52.045Z,78.75
2017-11-27T10:37:52.033Z,73.13
2017-11-27T10:38:51.994Z,90.00
2017-11-27T10:39:51.968Z,90.00
2017-11-27T10:40:51.941Z,90.00
2017-11-27T10:41:51.918Z,90.00
2017-11-27T10:42:51.894Z,90.00
2017-11-27T10:43:51.864Z,84.38
2017-11-27T10:44:51.840Z,90.00
2017-11-27T10:45:51.816Z,84.38
2017-11-27T10:46:51.789Z,73.13
2017-11-27T10:47:51.756Z,90.00
2017-11-27T10:48:51.744Z,95.63
2017-11-27T10:49:51.714Z,78.75
2017-11-27T10:50:51.687Z,73.13
2017-11-27T10:51:51.662Z,84.38
2017-11-27T10:52:51.644Z,90.00
2017-11-27T10:53:51.610Z,90.00
2017-11-27T10:54:51.584Z,90.00
2017-11-27T10:55:51.560Z,90.00
2017-11-27T10:56:51.531Z,90.00
2017-11-27T10:57:51.509Z,84.38
2017-11-27T10:58:51.482Z,73.13
2017-11-27T10:59:51.457Z,84.38
2017-11-27T11:00:51.441Z,84.38
2017-11-27T11:01:51.408Z,78.75
2017-11-27T11:02:51.386Z,84.38
2017-11-27T11:03:51.356Z,95.63
2017-11-27T11:04:51.330Z,95.63
2017-11-27T11:05:51.305Z,78.75
2017-11-27T11:06:51.287Z,73.13
2017-11-27T11:07:51.253Z,56.25
2017-11-27T11:08:51.229Z,50.63
2017-11-27T11:09:51.200Z,56.25
2017-11-27T11:10:51.178Z,50.63
2017-11-27T11:11:51.154Z,50.63
2017-11-27T11:12:51.127Z,39.38
2017-11-27T11:13:51.102Z,45.00
2017-11-27T11:14:51.077Z,33.75
2017-11-27T11:15:51.052Z,39.38
2017-11-27T11:16:51.030Z,39.38
2017-11-27T11:17:51.001Z,33.75
2017-11-27T11:18:50.974Z,33.75
2017-11-27T11:19:50.949Z,45.00
2017-11-27T11:20:50.923Z,50.63
2017-11-27T11:21:50.899Z,45.00
2017-11-27T11:22:50.874Z,39.38
2017-11-27T11:23:50.847Z,33.75
2017-11-27T11:24:50.824Z,33.75
2017-11-27T11:25:50.797Z,33.75
2017-11-27T11:26:50.771Z,39.38
2017-11-27T11:27:50.746Z,39.38
2017-11-27T11:28:50.723Z,39.38
2017-11-27T11:29:50.696Z,33.75
2017-11-27T11:30:50.673Z,45.00
2017-11-27T11:31:50.687Z,39.38
2017-11-27T11:32:50.619Z,45.00
2017-11-27T11:33:50.597Z,45.00
2017-11-27T11:34:50.571Z,39.38
2017-11-27T11:35:50.545Z,33.75
2017-11-27T11:36:50.519Z,39.38
2017-11-27T11:37:50.494Z,39.38
2017-11-27T11:38:50.469Z,45.00
2017-11-27T11:39:50.442Z,56.25
2017-11-27T11:40:50.419Z,61.88
2017-11-27T11:41:50.392Z,50.63
2017-11-27T11:42:50.369Z,50.63
2017-11-27T11:43:50.342Z,61.88
2017-11-27T11:44:50.318Z,73.13
2017-11-27T11:45:50.298Z,50.63
2017-11-27T11:46:50.268Z,45.00
2017-11-27T11:47:50.241Z,50.63
2017-11-27T11:48:50.230Z,50.63
2017-11-27T11:49:50.292Z,67.50
2017-11-27T11:50:50.167Z,67.50
2017-11-27T11:51:50.141Z,50.63
2017-11-27T11:52:50.117Z,45.00
2017-11-27T11:53:50.096Z,33.75
2017-11-27T11:54:50.065Z,33.75
2017-11-27T11:55:50.039Z,33.75
2017-11-27T11:56:50.020Z,33.75
2017-11-27T11:57:49.990Z,39.38
2017-11-27T11:58:49.965Z,45.00
2017-11-27T11:59:49.940Z,50.63
2017-11-27T12:00:49.914Z,73.13
2017-11-27T12:01:49.890Z,90.00
2017-11-27T12:02:49.864Z,95.63
2017-11-27T12:03:49.838Z,101.25
2017-11-27T12:04:49.825Z,78.75
2017-11-27T12:05:49.791Z,84.38
2017-11-27T12:06:49.765Z,56.25
2017-11-27T12:07:49.740Z,50.63
2017-11-27T12:08:49.713Z,39.38
2017-11-27T12:09:49.688Z,33.75
2017-11-27T12:10:49.666Z,28.13
2017-11-27T12:11:49.639Z,28.13
2017-11-27T12:12:49.615Z,28.13
2017-11-27T12:13:49.590Z,39.38
2017-11-27T12:14:49.566Z,56.25
2017-11-27T12:15:49.540Z,78.75
2017-11-27T12:16:49.516Z,78.75
2017-11-27T12:17:49.493Z,61.88
2017-11-27T12:18:49.491Z,61.88
2017-11-27T12:19:49.441Z,45.00
2017-11-27T12:20:49.415Z,33.75
2017-11-27T12:21:49.390Z,28.13
2017-11-27T12:22:49.366Z,22.50
2017-11-27T12:23:49.342Z,22.50
2017-11-27T12:24:49.315Z,22.50
2017-11-27T12:25:49.291Z,22.50
2017-11-27T12:26:49.270Z,28.13
2017-11-27T12:27:49.241Z,28.13
2017-11-27T12:28:49.221Z,61.88
2017-11-27T12:29:49.192Z,67.50
2017-11-27T12:30:49.174Z,61.88
2017-11-27T12:31:49.141Z,56.25
2017-11-27T12:32:49.117Z,56.25
2017-11-27T12:33:49.092Z,56.25
2017-11-27T12:34:49.070Z,39.38
2017-11-27T12:35:49.045Z,39.38
2017-11-27T12:36:49.021Z,33.75
2017-11-27T12:37:48.995Z,45.00
2017-11-27T12:38:48.970Z,45.00
2017-11-27T12:39:48.945Z,45.00
2017-11-27T12:40:48.921Z,56.25
2017-11-27T12:41:48.895Z,50.63
2017-11-27T12:42:48.875Z,50.63
2017-11-27T12:43:48.845Z,39.38
2017-11-27T12:44:48.852Z,45.00
2017-11-27T12:45:48.797Z,33.75
2017-11-27T12:46:48.773Z,39.38
2017-11-27T12:47:48.748Z,45.00
2017-11-27T12:48:48.809Z,39.38
2017-11-27T12:49:48.697Z,33.75
2017-11-27T12:50:48.674Z,45.00
2017-11-27T12:51:48.651Z,39.38
2017-11-27T12:52:48.624Z,45.00
2017-11-27T12:53:48.598Z,45.00
2017-11-27T12:54:48.573Z,39.38
2017-11-27T12:55:48.546Z,39.38
2017-11-27T12:56:48.525Z,61.88
2017-11-27T12:57:48.513Z,56.25
2017-11-27T12:58:48.476Z,45.00
2017-11-27T12:59:48.450Z,50.63
2017-11-27T13:00:48.420Z,50.63
2017-11-27T13:01:48.404Z,45.00
2017-11-27T13:02:48.377Z,39.38
2017-11-27T13:03:48.404Z,39.38
2017-11-27T13:04:48.364Z,33.75
2017-11-27T13:05:48.302Z,22.50